createdAt,value
2019-04-05T00:02:34.583Z,7.97
2019-04-05T00:05:07.297Z,6.73
2019-04-05T00:07:57.121Z,8.63
2019-04-05T00:10:27.674Z,8.97
2019-04-05T00:13:02.010Z,8.20
2019-04-05T00:15:33.601Z,8.20
2019-04-05T00:18:05.775Z,7.50
2019-04-05T00:20:36.811Z,8.83
2019-04-05T00:23:11.656Z,8.70
2019-04-05T00:25:46.504Z,10.30
2019-04-05T00:28:17.420Z,9.13
2019-04-05T00:30:52.503Z,7.90
2019-04-05T00:33:23.324Z,8.30
2019-04-05T00:35:58.082Z,11.53
2019-04-05T00:38:33.467Z,10.17
2019-04-05T00:41:05.055Z,7.87
2019-04-05T00:43:35.640Z,10.30
2019-04-05T00:46:08.085Z,10.53
2019-04-05T00:48:38.597Z,10.30
2019-04-05T00:51:09.436Z,8.53
2019-04-05T00:53:40.022Z,11.80
2019-04-05T00:56:12.894Z,12.07
2019-04-05T00:58:43.326Z,8.17
2019-04-05T01:01:14.108Z,7.93
2019-04-05T01:03:47.959Z,10.50
2019-04-05T01:06:18.798Z,9.30
2019-04-05T01:08:54.236Z,12.97
2019-04-05T01:11:26.190Z,10.23
2019-04-05T01:14:00.493Z,9.93
2019-04-05T01:16:31.067Z,11.50
2019-04-05T01:19:03.993Z,8.60
2019-04-05T01:21:39.820Z,8.37
2019-04-05T01:24:13.677Z,8.43
2019-04-05T01:26:52.760Z,10.43
2019-04-05T01:29:23.606Z,8.60
2019-04-05T01:31:55.660Z,8.77
2019-04-05T01:34:26.497Z,12.03
2019-04-05T01:36:57.314Z,11.77
2019-04-05T01:39:29.161Z,7.60
2019-04-05T01:42:02.029Z,9.07
2019-04-05T01:44:33.091Z,9.30
2019-04-05T01:47:05.074Z,10.57
2019-04-05T01:49:37.111Z,10.30
2019-04-05T01:52:07.654Z,8.73
2019-04-05T01:54:38.064Z,11.40
2019-04-05T01:57:10.344Z,9.50
2019-04-05T01:59:44.727Z,10.20
2019-04-05T02:02:15.181Z,13.60
2019-04-05T02:04:52.801Z,9.50
2019-04-05T02:07:23.378Z,11.53
2019-04-05T02:09:54.256Z,9.47
2019-04-05T02:12:28.836Z,12.27
2019-04-05T02:15:02.889Z,8.67
2019-04-05T02:17:35.817Z,9.10
2019-04-05T02:20:10.178Z,10.50
2019-04-05T02:22:40.419Z,8.83
2019-04-05T02:25:11.486Z,13.43
2019-04-05T02:27:42.804Z,9.67
2019-04-05T02:30:13.210Z,9.00
2019-04-05T02:32:45.394Z,9.57
2019-04-05T02:35:18.976Z,7.53
2019-04-05T02:37:49.554Z,11.53
2019-04-05T02:40:20.422Z,11.77
2019-04-05T02:42:53.543Z,12.30
2019-04-05T02:45:25.062Z,8.70
2019-04-05T02:48:02.098Z,10.27
2019-04-05T02:50:35.225Z,9.93
2019-04-05T02:53:07.937Z,12.83
2019-04-05T02:55:43.389Z,11.87
2019-04-05T02:58:17.594Z,10.33
2019-04-05T03:00:51.921Z,10.07
2019-04-05T03:03:22.880Z,10.50
2019-04-05T03:05:54.607Z,10.60
2019-04-05T03:08:26.985Z,11.53
2019-04-05T03:11:08.823Z,11.87
2019-04-05T03:13:45.900Z,10.53
2019-04-05T03:16:21.249Z,11.63
2019-04-05T03:18:55.809Z,12.00
2019-04-05T03:21:29.550Z,10.03
2019-04-05T03:24:03.819Z,10.03
2019-04-05T03:26:37.401Z,14.70
2019-04-05T03:29:12.720Z,13.27
2019-04-05T03:31:44.358Z,13.30
2019-04-05T03:34:16.561Z,19.57
2019-04-05T03:36:51.432Z,17.43
2019-04-05T03:39:20.642Z,13.40
2019-04-05T03:41:59.571Z,13.83
2019-04-05T03:44:34.584Z,12.33
2019-04-05T03:47:06.413Z,14.13
2019-04-05T03:49:42.129Z,12.77
2019-04-05T03:52:12.922Z,14.63
2019-04-05T03:54:45.740Z,14.63
2019-04-05T03:57:16.280Z,13.50
2019-04-05T03:59:50.031Z,13.40
2019-04-05T04:02:23.649Z,12.10
2019-04-05T04:04:57.951Z,12.33
2019-04-05T04:07:30.940Z,14.67
2019-04-05T04:10:01.740Z,11.23
2019-04-05T04:12:32.483Z,12.97
2019-04-05T04:15:15.210Z,15.00
2019-04-05T04:17:46.289Z,15.23
2019-04-05T04:20:39.270Z,18.73
2019-04-05T04:23:11.676Z,16.93
2019-04-05T04:25:43.211Z,16.20
2019-04-05T04:28:14.482Z,15.50
2019-04-05T04:30:45.673Z,17.37
2019-04-05T04:33:16.275Z,15.37
2019-04-05T04:35:50.438Z,15.03
2019-04-05T04:38:22.372Z,16.80
2019-04-05T04:40:53.019Z,13.43
2019-04-05T04:43:23.607Z,15.00
2019-04-05T04:45:56.682Z,15.00
2019-04-05T04:48:31.772Z,15.20
2019-04-05T04:51:06.993Z,18.17
2019-04-05T04:53:37.633Z,15.90
2019-04-05T04:56:12.897Z,17.00
2019-04-05T04:58:46.217Z,15.50
2019-04-05T05:01:15.695Z,20.53
2019-04-05T05:03:47.966Z,14.63
2019-04-05T05:06:20.875Z,15.17
2019-04-05T05:08:51.405Z,14.70
2019-04-05T05:11:24.847Z,18.47
2019-04-05T05:13:55.409Z,15.47
2019-04-05T05:16:26.178Z,14.37
2019-04-05T05:18:57.127Z,16.77
2019-04-05T05:21:27.843Z,19.10
2019-04-05T05:23:58.427Z,15.53
2019-04-05T05:26:33.895Z,15.50
2019-04-05T05:29:07.793Z,18.77
2019-04-05T05:31:40.751Z,14.50
2019-04-05T05:34:13.796Z,19.67
2019-04-05T05:36:49.506Z,14.80
2019-04-05T05:39:23.463Z,18.77
2019-04-05T05:41:56.177Z,15.20
2019-04-05T05:44:26.857Z,16.50
2019-04-05T05:46:57.118Z,15.87
2019-04-05T05:49:28.848Z,16.03
2019-04-05T05:52:00.474Z,19.23
2019-04-05T05:54:30.750Z,15.73
2019-04-05T05:57:01.397Z,22.20
2019-04-05T05:59:31.699Z,19.63
2019-04-05T06:02:02.036Z,16.57
2019-04-05T06:04:32.292Z,19.93
2019-04-05T06:07:02.730Z,17.27
2019-04-05T06:09:52.129Z,14.20
2019-04-05T06:12:22.447Z,14.50
2019-04-05T06:14:52.983Z,14.37
2019-04-05T06:17:23.235Z,43.93
2019-04-05T06:19:53.529Z,32.37
2019-04-05T06:22:26.763Z,22.80
2019-04-05T06:24:57.177Z,19.53
2019-04-05T06:27:27.467Z,17.63
2019-04-05T06:29:57.761Z,18.07
2019-04-05T06:32:28.131Z,23.87
2019-04-05T06:34:58.491Z,19.23
2019-04-05T06:37:28.872Z,16.40
2019-04-05T06:39:59.307Z,12.70
2019-04-05T06:42:29.599Z,11.70
2019-04-05T06:44:59.939Z,10.33
2019-04-05T06:47:30.236Z,9.73
2019-04-05T06:50:00.539Z,12.87
2019-04-05T06:52:30.886Z,11.00
2019-04-05T06:55:01.268Z,11.70
2019-04-05T06:57:31.641Z,15.03
2019-04-05T07:00:01.984Z,9.50
2019-04-05T07:02:33.972Z,10.60
2019-04-05T07:05:06.160Z,8.80
2019-04-05T07:07:36.476Z,9.43
2019-04-05T07:10:06.885Z,8.87
2019-04-05T07:12:37.136Z,8.67
2019-04-05T07:15:07.510Z,9.40
2019-04-05T07:17:37.944Z,8.10
2019-04-05T07:20:08.416Z,8.13
2019-04-05T07:22:39.550Z,9.90
2019-04-05T07:25:10.088Z,9.97
2019-04-05T07:27:40.360Z,9.73
2019-04-05T07:30:10.824Z,9.00
2019-04-05T07:32:41.196Z,10.07
2019-04-05T07:35:11.466Z,8.87
2019-04-05T07:37:41.792Z,10.47
2019-04-05T07:40:12.171Z,10.47
2019-04-05T07:42:42.483Z,13.60
2019-04-05T07:45:13.038Z,12.73
2019-04-05T07:47:43.392Z,25.07
2019-04-05T07:50:13.758Z,14.47
2019-04-05T07:52:44.115Z,10.63
2019-04-05T07:55:14.983Z,9.83
2019-04-05T07:57:45.330Z,10.93
2019-04-05T08:00:48.571Z,13.33
2019-04-05T08:03:19.731Z,12.23
2019-04-05T08:05:50.973Z,9.63
2019-04-05T08:08:28.529Z,8.80
2019-04-05T08:10:59.341Z,12.83
2019-04-05T08:13:31.367Z,12.10
2019-04-05T08:16:01.713Z,9.73
2019-04-05T08:18:32.082Z,9.07
2019-04-05T08:21:02.393Z,10.00
2019-04-05T08:23:32.832Z,12.27
2019-04-05T08:26:03.231Z,9.47
2019-04-05T08:28:33.546Z,9.13
2019-04-05T08:31:03.917Z,9.37
2019-04-05T08:33:36.539Z,9.43
2019-04-05T08:36:07.121Z,10.57
2019-04-05T08:38:39.887Z,11.73
2019-04-05T08:41:10.674Z,16.70
2019-04-05T08:43:41.026Z,11.83
2019-04-05T08:46:11.384Z,16.17
2019-04-05T08:48:41.670Z,12.77
2019-04-05T08:51:12.021Z,12.53
2019-04-05T08:53:42.318Z,11.53
2019-04-05T08:56:12.623Z,13.70
2019-04-05T08:58:42.952Z,11.83
2019-04-05T09:01:13.402Z,12.17
2019-04-05T09:03:44.751Z,9.57
2019-04-05T09:06:15.943Z,12.07
2019-04-05T09:08:46.389Z,16.77
2019-04-05T09:11:16.730Z,11.97
2019-04-05T09:13:47.041Z,11.93
2019-04-05T09:16:17.441Z,12.13
2019-04-05T09:18:49.483Z,13.60
2019-04-05T09:21:19.911Z,9.93
2019-04-05T09:23:50.285Z,15.20
2019-04-05T09:26:20.619Z,12.70
2019-04-05T09:28:50.935Z,12.37
2019-04-05T09:31:21.255Z,12.47
2019-04-05T09:33:51.551Z,13.03
2019-04-05T09:36:21.833Z,11.40
2019-04-05T09:38:52.119Z,15.47
2019-04-05T09:41:22.563Z,14.00
2019-04-05T09:43:52.988Z,14.53
2019-04-05T09:46:23.360Z,10.17
2019-04-05T09:48:53.651Z,11.27
2019-04-05T09:51:24.241Z,11.43
2019-04-05T09:53:54.557Z,10.97
2019-04-05T09:56:24.840Z,11.20
2019-04-05T09:58:55.155Z,14.27
2019-04-05T10:01:25.591Z,12.67
2019-04-05T10:03:55.965Z,11.93
2019-04-05T10:06:26.338Z,12.20
2019-04-05T10:08:56.676Z,14.93
2019-04-05T10:11:27.051Z,12.57
2019-04-05T10:13:57.349Z,13.20
2019-04-05T10:16:27.715Z,15.70
2019-04-05T10:18:58.026Z,12.17
2019-04-05T10:21:28.381Z,16.27
2019-04-05T10:23:58.656Z,13.90
2019-04-05T10:26:28.922Z,11.77
2019-04-05T10:28:59.242Z,12.33
2019-04-05T10:31:31.166Z,14.50
2019-04-05T10:34:02.182Z,13.43
2019-04-05T10:36:32.472Z,14.70
2019-04-05T10:39:05.130Z,11.60
2019-04-05T10:41:37.262Z,14.57
2019-04-05T10:44:11.841Z,13.60
2019-04-05T10:46:42.195Z,15.97
2019-04-05T10:49:15.105Z,15.67
2019-04-05T10:51:45.461Z,15.30
2019-04-05T10:54:15.906Z,14.20
2019-04-05T10:56:46.370Z,18.57
2019-04-05T10:59:16.870Z,13.50
2019-04-05T11:01:47.508Z,20.27
2019-04-05T11:04:17.988Z,14.13
2019-04-05T11:06:48.377Z,14.50
2019-04-05T11:09:18.842Z,13.93
2019-04-05T11:11:49.306Z,13.03
2019-04-05T11:14:19.633Z,14.40
2019-04-05T11:16:58.473Z,15.47
2019-04-05T11:19:23.597Z,14.57
2019-04-05T11:21:53.896Z,17.13
2019-04-05T11:24:25.603Z,16.13
2019-04-05T11:26:55.940Z,15.30
2019-04-05T11:29:26.367Z,14.63
2019-04-05T11:31:57.650Z,16.63
2019-04-05T11:34:28.198Z,17.00
2019-04-05T11:37:03.046Z,14.23
2019-04-05T11:39:34.140Z,13.13
2019-04-05T11:42:06.128Z,13.87
2019-04-05T11:44:40.783Z,14.27
2019-04-05T11:47:11.161Z,14.27
2019-04-05T11:49:42.591Z,16.90
2019-04-05T11:52:12.980Z,17.50
2019-04-05T11:54:43.790Z,15.53
2019-04-05T11:57:20.686Z,17.57
2019-04-05T11:59:51.416Z,15.83
2019-04-05T12:02:32.475Z,16.50
2019-04-05T12:05:05.324Z,19.03
2019-04-05T12:07:35.625Z,18.60
2019-04-05T12:10:07.593Z,17.63
2019-04-05T12:12:37.916Z,18.23
2019-04-05T12:15:08.527Z,16.70
2019-04-05T12:17:38.987Z,16.13
2019-04-05T12:20:10.289Z,15.53
2019-04-05T12:22:40.763Z,16.17
2019-04-05T12:25:11.287Z,14.53
2019-04-05T12:27:41.544Z,14.23
2019-04-05T12:30:14.165Z,14.40
2019-04-05T12:32:46.517Z,12.83
2019-04-05T12:35:16.752Z,12.97
2019-04-05T12:37:55.822Z,13.70
2019-04-05T12:40:25.208Z,12.17
2019-04-05T12:42:56.685Z,13.87
2019-04-05T12:45:27.157Z,12.00
2019-04-05T12:47:59.141Z,12.30
2019-04-05T12:50:29.717Z,12.13
2019-04-05T12:53:00.390Z,11.63
2019-04-05T12:55:30.799Z,11.30
2019-04-05T12:58:01.222Z,12.07
2019-04-05T13:00:31.597Z,12.90
2019-04-05T13:03:02.019Z,13.07
2019-04-05T13:05:32.537Z,11.73
2019-04-05T13:08:18.574Z,9.63
2019-04-05T13:10:49.543Z,10.27
2019-04-05T13:13:19.928Z,10.00
2019-04-05T13:15:51.978Z,7.30
2019-04-05T13:18:30.711Z,8.23
2019-04-05T13:21:00.218Z,9.20
2019-04-05T13:23:31.480Z,8.57
2019-04-05T13:26:02.024Z,8.33
2019-04-05T13:28:33.597Z,7.93
2019-04-05T13:31:04.146Z,8.23
2019-04-05T13:33:34.523Z,7.73
2019-04-05T13:36:04.995Z,7.87
2019-04-05T13:38:35.374Z,8.67
2019-04-05T13:41:07.213Z,8.10
2019-04-05T13:43:37.547Z,8.47
2019-04-05T13:47:16.236Z,6.17
2019-04-05T13:48:54.115Z,6.33
2019-04-05T13:51:28.660Z,9.83
2019-04-05T13:53:59.393Z,10.40
2019-04-05T13:56:34.858Z,8.83
2019-04-05T13:59:05.226Z,9.23
2019-04-05T14:01:43.480Z,10.17
2019-04-05T14:04:13.837Z,9.27
2019-04-05T14:06:44.227Z,10.27
2019-04-05T14:09:15.681Z,6.77
2019-04-05T14:15:12.879Z,7.93
2019-04-05T14:17:44.802Z,10.57
2019-04-05T14:20:18.779Z,9.57
2019-04-05T14:22:48.659Z,9.47
2019-04-05T14:25:19.768Z,7.47
2019-04-05T14:27:50.092Z,9.07
2019-04-05T14:30:20.387Z,8.27
2019-04-05T14:32:51.789Z,6.33
2019-04-05T14:35:25.346Z,6.47
2019-04-05T14:37:55.881Z,5.47
2019-04-05T14:40:28.940Z,10.40
2019-04-05T14:42:59.060Z,6.57
2019-04-05T14:45:29.445Z,6.40
2019-04-05T14:48:02.797Z,5.60
2019-04-05T14:50:33.108Z,8.23
2019-04-05T14:53:03.840Z,7.60
2019-04-05T14:55:34.661Z,7.00
2019-04-05T14:58:06.075Z,5.23
2019-04-05T15:00:36.696Z,6.17
2019-04-05T15:03:07.327Z,5.70
2019-04-05T15:05:37.753Z,6.23
2019-04-05T15:08:08.503Z,5.33
2019-04-05T15:10:38.969Z,5.33
2019-04-05T15:13:09.370Z,3.77
2019-04-05T15:15:39.813Z,4.90
2019-04-05T15:18:10.323Z,3.40
2019-04-05T15:20:40.895Z,4.20
2019-04-05T15:23:13.926Z,4.23
2019-04-05T15:25:43.907Z,3.57
2019-04-05T15:28:15.337Z,3.50
2019-04-05T15:30:56.116Z,4.80
2019-04-05T15:33:21.366Z,6.90
2019-04-05T15:35:51.746Z,3.53
2019-04-05T15:38:24.544Z,5.03
2019-04-05T15:40:55.252Z,4.07
2019-04-05T15:43:25.670Z,4.90
2019-04-05T15:45:55.974Z,5.33
2019-04-05T15:48:26.285Z,4.20
2019-04-05T15:50:59.100Z,5.40
2019-04-05T15:53:31.896Z,5.07
2019-04-05T15:56:03.855Z,4.23
2019-04-05T15:58:36.231Z,5.40
2019-04-05T16:01:06.795Z,4.33
2019-04-05T16:03:42.570Z,4.07
2019-04-05T16:06:17.536Z,3.23
2019-04-05T16:08:53.737Z,3.77
2019-04-05T16:11:24.031Z,3.00
2019-04-05T16:13:54.477Z,4.27
2019-04-05T16:16:30.739Z,5.60
2019-04-05T16:19:01.285Z,3.70
2019-04-05T16:21:31.807Z,5.10
2019-04-05T16:24:02.137Z,3.07
2019-04-05T16:26:32.709Z,2.00
2019-04-05T16:29:03.104Z,3.17
2019-04-05T16:31:33.597Z,2.83
2019-04-05T16:34:03.813Z,5.20
2019-04-05T16:36:35.197Z,5.73
2019-04-05T16:39:11.493Z,5.37
2019-04-05T16:41:41.891Z,4.37
2019-04-05T16:44:12.265Z,4.03
2019-04-05T16:46:42.850Z,3.20
2019-04-05T16:49:13.219Z,3.63
2019-04-05T16:51:43.627Z,3.37
2019-04-05T16:54:21.272Z,5.40
2019-04-05T16:56:57.746Z,4.07
2019-04-05T16:59:52.087Z,3.43
2019-04-05T17:02:16.874Z,3.80
2019-04-05T17:04:47.372Z,3.37
2019-04-05T17:07:24.217Z,3.40
2019-04-05T17:09:56.181Z,4.23
2019-04-05T17:12:26.499Z,2.23
2019-04-05T17:14:58.030Z,2.73
2019-04-05T17:17:33.649Z,6.57
2019-04-05T17:20:05.185Z,4.97
2019-04-05T17:22:37.266Z,1.47
2019-04-05T17:25:08.377Z,2.63
2019-04-05T17:27:39.006Z,1.57
2019-04-05T17:30:09.976Z,3.97
2019-04-05T17:32:41.735Z,2.30
2019-04-05T17:35:12.411Z,1.83
2019-04-05T17:37:43.907Z,2.07
2019-04-05T17:40:14.255Z,2.33
2019-04-05T17:42:44.824Z,2.13
2019-04-05T17:45:15.445Z,5.90
2019-04-05T17:47:45.896Z,2.00
2019-04-05T17:50:28.035Z,3.20
2019-04-05T17:53:11.226Z,3.97
2019-04-05T17:55:30.775Z,4.67
2019-04-05T17:58:03.379Z,2.43
2019-04-05T18:00:33.782Z,1.77
2019-04-05T18:03:05.710Z,2.00
2019-04-05T18:05:38.687Z,4.67
2019-04-05T18:08:09.197Z,3.07
2019-04-05T18:10:39.629Z,2.60
2019-04-05T18:13:09.955Z,3.23
2019-04-05T18:15:51.839Z,2.03
2019-04-05T18:18:16.322Z,2.30
2019-04-05T18:20:47.061Z,3.30
2019-04-05T18:23:24.855Z,1.97
2019-04-05T18:25:54.895Z,2.70
2019-04-05T18:28:30.250Z,3.53
2019-04-05T18:31:02.528Z,5.73
2019-04-05T18:33:32.978Z,2.47
2019-04-05T18:36:05.318Z,2.17
2019-04-05T18:38:35.812Z,3.40
2019-04-05T18:41:06.338Z,5.23
2019-04-05T18:43:39.679Z,5.97
2019-04-05T18:46:15.799Z,3.60
2019-04-05T18:48:49.685Z,6.30
2019-04-05T18:51:20.322Z,4.40
2019-04-05T18:53:52.100Z,5.20
2019-04-05T18:56:22.873Z,4.90
2019-04-05T18:58:53.375Z,7.40
2019-04-05T19:01:23.866Z,7.03
2019-04-05T19:03:57.349Z,6.50
2019-04-05T19:06:30.747Z,7.37
2019-04-05T19:09:03.113Z,5.20
2019-04-05T19:11:35.235Z,6.67
2019-04-05T19:14:05.962Z,7.90
2019-04-05T19:16:36.571Z,7.30
2019-04-05T19:19:30.350Z,9.03
2019-04-05T19:22:05.304Z,8.33
2019-04-05T19:24:38.539Z,6.00
2019-04-05T19:27:12.283Z,9.50
2019-04-05T19:29:47.922Z,7.70
2019-04-05T19:50:23.177Z,8.90
2019-04-05T19:52:50.809Z,8.20
2019-04-05T19:55:24.181Z,5.33
2019-04-05T19:57:57.659Z,8.60
2019-04-05T20:00:29.254Z,9.53
2019-04-05T20:03:00.386Z,8.03
2019-04-05T20:05:36.031Z,7.97
2019-04-05T20:08:11.022Z,6.27
2019-04-05T20:10:56.939Z,5.60
2019-04-05T20:13:30.800Z,6.40
2019-04-05T20:16:07.552Z,8.07
2019-04-05T20:18:41.370Z,10.37
2019-04-05T20:21:12.796Z,6.50
2019-04-05T20:23:47.935Z,6.13
2019-04-05T20:26:20.477Z,6.13
2019-04-05T20:28:56.006Z,8.73
2019-04-05T20:31:30.208Z,7.33
2019-04-05T20:34:02.713Z,7.33
2019-04-05T20:36:33.463Z,9.87
2019-04-05T20:39:05.515Z,8.50
2019-04-05T20:41:38.910Z,7.93
2019-04-05T20:44:12.706Z,9.90
2019-04-05T20:46:43.840Z,12.73
2019-04-05T20:49:15.123Z,7.77
2019-04-05T20:51:53.558Z,9.47
2019-04-05T20:54:27.848Z,7.70
2019-04-05T20:57:01.131Z,7.43
2019-04-05T20:59:33.364Z,9.07
2019-04-05T21:02:07.719Z,9.57
2019-04-05T21:04:40.706Z,8.17
2019-04-05T21:07:13.222Z,11.40
2019-04-05T21:09:43.728Z,9.03
2019-04-05T21:12:14.523Z,8.17
2019-04-05T21:14:44.988Z,10.13
2019-04-05T21:17:15.642Z,10.63
2019-04-05T21:19:46.172Z,10.87
2019-04-05T21:22:16.588Z,10.63
2019-04-05T21:24:47.114Z,9.33
2019-04-05T21:27:18.235Z,9.23
2019-04-05T21:29:48.549Z,9.30
2019-04-05T21:32:18.912Z,13.63
2019-04-05T21:34:49.657Z,12.50
2019-04-05T21:37:20.005Z,13.50
2019-04-05T21:39:50.387Z,13.33
2019-04-05T21:42:20.735Z,9.20
2019-04-05T21:44:51.140Z,11.03
2019-04-05T21:47:22.710Z,12.50
2019-04-05T21:49:53.252Z,14.13
2019-04-05T21:52:23.734Z,12.33
2019-04-05T21:54:54.144Z,10.00
2019-04-05T21:57:26.665Z,15.03
2019-04-05T21:59:57.121Z,13.77
2019-04-05T22:02:27.801Z,13.87
2019-04-05T22:04:58.243Z,12.77
2019-04-05T22:07:28.651Z,15.17
2019-04-05T22:09:59.098Z,12.47
2019-04-05T22:12:33.499Z,14.60
2019-04-05T22:15:04.310Z,11.47
2019-04-05T22:17:34.764Z,11.77
2019-04-05T22:20:10.264Z,13.30
2019-04-05T22:22:40.638Z,14.07
2019-04-05T22:25:12.186Z,14.43
2019-04-05T22:27:42.600Z,12.37
2019-04-05T22:30:14.639Z,13.73
2019-04-05T22:32:46.776Z,12.47
2019-04-05T22:35:17.248Z,12.37
2019-04-05T22:37:47.739Z,13.50
2019-04-05T22:40:18.157Z,13.73
2019-04-05T22:42:51.345Z,12.40
2019-04-05T22:45:22.020Z,12.17
2019-04-05T22:47:52.739Z,18.20
2019-04-05T22:50:23.200Z,15.10
2019-04-05T22:52:53.686Z,16.87
2019-04-05T22:55:24.096Z,16.30
2019-04-05T22:57:56.071Z,16.97
2019-04-05T23:00:26.493Z,13.83
2019-04-05T23:02:56.914Z,14.43
2019-04-05T23:05:27.367Z,15.37
2019-04-05T23:07:57.867Z,12.03
2019-04-05T23:10:28.269Z,11.93
2019-04-05T23:12:58.777Z,15.73
2019-04-05T23:15:29.149Z,14.77
2019-04-05T23:18:00.318Z,13.00
2019-04-05T23:20:30.718Z,18.63
2019-04-05T23:23:01.175Z,17.20
2019-04-05T23:25:31.631Z,16.80
2019-04-05T23:28:02.082Z,15.77
2019-04-05T23:30:33.842Z,16.00
2019-04-05T23:33:04.439Z,18.67
2019-04-05T23:35:34.888Z,15.93
2019-04-05T23:38:05.419Z,20.10
2019-04-05T23:40:35.892Z,20.97
2019-04-05T23:43:06.403Z,18.00
2019-04-05T23:45:36.892Z,18.30
2019-04-05T23:48:07.496Z,13.83
2019-04-05T23:50:37.992Z,18.87
2019-04-05T23:53:08.522Z,15.87
2019-04-05T23:55:39.150Z,16.53
2019-04-05T23:58:12.549Z,19.43
